sensor_id;sensor_type;location;lat;lon;timestamp;temperature;humidity
5956;DHT22;3004;48.080;11.600;2022-10-26T00:01:40;7.80;99.90
5956;DHT22;3004;48.080;11.600;2022-10-26T00:04:07;7.80;99.90
5956;DHT22;3004;48.080;11.600;2022-10-26T00:06:36;7.90;99.90
5956;DHT22;3004;48.080;11.600;2022-10-26T00:09:05;7.90;99.90
5956;DHT22;3004;48.080;11.600;2022-10-26T00:11:32;8.00;99.90
5956;DHT22;3004;48.080;11.600;2022-10-26T00:13:59;8.00;99.90
5956;DHT22;3004;48.080;11.600;2022-10-26T00:16:28;8.00;99.90
5956;DHT22;3004;48.080;11.600;2022-10-26T00:18:55;8.00;99.90
5956;DHT22;3004;48.080;11.600;2022-10-26T00:21:24;8.00;99.90
5956;DHT22;3004;48.080;11.600;2022-10-26T00:23:53;8.00;99.90
5956;DHT22;3004;48.080;11.600;2022-10-26T00:26:20;8.00;99.90
5956;DHT22;3004;48.080;11.600;2022-10-26T00:28:47;8.10;99.90
5956;DHT22;3004;48.080;11.600;2022-10-26T00:31:15;8.10;99.90
5956;DHT22;3004;48.080;11.600;2022-10-26T00:33:42;8.10;99.90
5956;DHT22;3004;48.080;11.600;2022-10-26T00:36:09;8.10;99.90
5956;DHT22;3004;48.080;11.600;2022-10-26T00:38:38;8.10;99.90
5956;DHT22;3004;48.080;11.600;2022-10-26T00:41:13;8.10;99.90
5956;DHT22;3004;48.080;11.600;2022-10-26T00:43:41;8.10;99.90
5956;DHT22;3004;48.080;11.600;2022-10-26T00:46:11;8.10;99.90
5956;DHT22;3004;48.080;11.600;2022-10-26T00:48:42;8.10;99.90
5956;DHT22;3004;48.080;11.600;2022-10-26T00:51:26;8.10;99.90
5956;DHT22;3004;48.080;11.600;2022-10-26T00:53:59;8.20;99.90
5956;DHT22;3004;48.080;11.600;2022-10-26T00:56:28;8.10;99.90
5956;DHT22;3004;48.080;11.600;2022-10-26T00:58:58;8.10;99.90
5956;DHT22;3004;48.080;11.600;2022-10-26T01:01:28;8.10;99.90
5956;DHT22;3004;48.080;11.600;2022-10-26T01:03:55;8.20;99.90
5956;DHT22;3004;48.080;11.600;2022-10-26T01:06:23;8.20;99.90
5956;DHT22;3004;48.080;11.600;2022-10-26T01:08:51;8.20;99.90
5956;DHT22;3004;48.080;11.600;2022-10-26T01:11:21;8.20;99.90
5956;DHT22;3004;48.080;11.600;2022-10-26T01:13:51;8.30;99.90
5956;DHT22;3004;48.080;11.600;2022-10-26T01:22:28;8.40;99.90
5956;DHT22;3004;48.080;11.600;2022-10-26T01:25:07;8.40;99.90
5956;DHT22;3004;48.080;11.600;2022-10-26T01:27:40;8.40;99.90
5956;DHT22;3004;48.080;11.600;2022-10-26T01:30:25;8.50;99.90
5956;DHT22;3004;48.080;11.600;2022-10-26T01:33:09;8.50;99.90
5956;DHT22;3004;48.080;11.600;2022-10-26T01:35:44;8.50;99.90
5956;DHT22;3004;48.080;11.600;2022-10-26T01:38:20;8.50;99.90
5956;DHT22;3004;48.080;11.600;2022-10-26T01:40:53;8.60;99.90
5956;DHT22;3004;48.080;11.600;2022-10-26T01:43:23;8.50;99.90
5956;DHT22;3004;48.080;11.600;2022-10-26T01:45:53;8.60;99.90
5956;DHT22;3004;48.080;11.600;2022-10-26T01:48:24;8.60;99.90
5956;DHT22;3004;48.080;11.600;2022-10-26T01:50:56;8.60;99.90
5956;DHT22;3004;48.080;11.600;2022-10-26T01:53:25;8.70;99.90
5956;DHT22;3004;48.080;11.600;2022-10-26T01:55:56;8.70;99.90
5956;DHT22;3004;48.080;11.600;2022-10-26T01:58:47;8.70;99.90
5956;DHT22;3004;48.080;11.600;2022-10-26T02:04:34;8.60;99.90
5956;DHT22;3004;48.080;11.600;2022-10-26T02:07:12;8.70;99.90
5956;DHT22;3004;48.080;11.600;2022-10-26T02:09:52;8.70;99.90
5956;DHT22;3004;48.080;11.600;2022-10-26T02:12:30;8.70;99.90
5956;DHT22;3004;48.080;11.600;2022-10-26T02:15:04;8.70;99.90
5956;DHT22;3004;48.080;11.600;2022-10-26T02:35:47;8.80;99.90
5956;DHT22;3004;48.080;11.600;2022-10-26T04:34:25;9.60;99.90
5956;DHT22;3004;48.080;11.600;2022-10-26T04:36:53;9.70;99.90
5956;DHT22;3004;48.080;11.600;2022-10-26T04:39:20;9.80;99.90
5956;DHT22;3004;48.080;11.600;2022-10-26T04:41:47;9.80;99.90
5956;DHT22;3004;48.080;11.600;2022-10-26T04:44:16;9.90;99.90
5956;DHT22;3004;48.080;11.600;2022-10-26T04:46:43;9.90;99.90
5956;DHT22;3004;48.080;11.600;2022-10-26T04:49:10;9.90;99.90
5956;DHT22;3004;48.080;11.600;2022-10-26T04:51:39;9.90;99.90
5956;DHT22;3004;48.080;11.600;2022-10-26T04:54:07;9.90;99.90
5956;DHT22;3004;48.080;11.600;2022-10-26T04:56:45;9.90;99.90
5956;DHT22;3004;48.080;11.600;2022-10-26T04:59:12;9.90;99.90
5956;DHT22;3004;48.080;11.600;2022-10-26T05:01:39;9.90;99.90
5956;DHT22;3004;48.080;11.600;2022-10-26T05:04:06;9.90;99.90
5956;DHT22;3004;48.080;11.600;2022-10-26T05:06:35;10.00;99.90
5956;DHT22;3004;48.080;11.600;2022-10-26T05:09:04;10.10;99.90
5956;DHT22;3004;48.080;11.600;2022-10-26T05:11:35;10.20;99.90
5956;DHT22;3004;48.080;11.600;2022-10-26T05:14:02;10.30;99.90
5956;DHT22;3004;48.080;11.600;2022-10-26T05:16:29;10.60;99.90
5956;DHT22;3004;48.080;11.600;2022-10-26T05:18:57;11.10;99.90
5956;DHT22;3004;48.080;11.600;2022-10-26T05:24:36;11.40;99.90
5956;DHT22;3004;48.080;11.600;2022-10-26T05:27:03;11.40;99.90
5956;DHT22;3004;48.080;11.600;2022-10-26T05:29:30;11.40;99.90
5956;DHT22;3004;48.080;11.600;2022-10-26T05:31:57;11.40;99.90
5956;DHT22;3004;48.080;11.600;2022-10-26T05:34:24;11.20;99.90
5956;DHT22;3004;48.080;11.600;2022-10-26T05:36:52;11.20;99.90
5956;DHT22;3004;48.080;11.600;2022-10-26T05:39:19;11.20;99.90
5956;DHT22;3004;48.080;11.600;2022-10-26T05:41:48;11.10;99.90
5956;DHT22;3004;48.080;11.600;2022-10-26T05:44:15;11.20;99.90
5956;DHT22;3004;48.080;11.600;2022-10-26T05:46:45;11.20;99.90
5956;DHT22;3004;48.080;11.600;2022-10-26T05:49:12;11.20;99.90
5956;DHT22;3004;48.080;11.600;2022-10-26T05:51:40;11.20;99.90
5956;DHT22;3004;48.080;11.600;2022-10-26T05:54:10;11.20;99.90
5956;DHT22;3004;48.080;11.600;2022-10-26T05:56:39;11.20;99.90
5956;DHT22;3004;48.080;11.600;2022-10-26T05:59:13;11.20;99.90
5956;DHT22;3004;48.080;11.600;2022-10-26T06:02:00;11.30;99.90
5956;DHT22;3004;48.080;11.600;2022-10-26T06:04:34;11.30;99.90
5956;DHT22;3004;48.080;11.600;2022-10-26T06:07:08;11.30;99.90
5956;DHT22;3004;48.080;11.600;2022-10-26T06:09:37;11.30;99.90
5956;DHT22;3004;48.080;11.600;2022-10-26T06:12:05;11.30;99.90
5956;DHT22;3004;48.080;11.600;2022-10-26T06:14:35;11.40;99.90
5956;DHT22;3004;48.080;11.600;2022-10-26T06:17:28;11.40;99.90
5956;DHT22;3004;48.080;11.600;2022-10-26T06:20:22;11.30;99.90
5956;DHT22;3004;48.080;11.600;2022-10-26T06:22:58;11.30;99.90
5956;DHT22;3004;48.080;11.600;2022-10-26T06:25:35;11.20;99.90
5956;DHT22;3004;48.080;11.600;2022-10-26T06:28:21;11.30;99.90
5956;DHT22;3004;48.080;11.600;2022-10-26T06:31:01;11.30;99.90
5956;DHT22;3004;48.080;11.600;2022-10-26T06:33:42;11.30;99.90
5956;DHT22;3004;48.080;11.600;2022-10-26T06:36:19;11.30;99.90
5956;DHT22;3004;48.080;11.600;2022-10-26T06:38:50;11.40;99.90
5956;DHT22;3004;48.080;11.600;2022-10-26T06:41:27;11.30;99.90
5956;DHT22;3004;48.080;11.600;2022-10-26T06:43:57;11.30;99.90
5956;DHT22;3004;48.080;11.600;2022-10-26T06:46:38;11.30;99.90
5956;DHT22;3004;48.080;11.600;2022-10-26T06:49:15;11.30;99.90
5956;DHT22;3004;48.080;11.600;2022-10-26T06:51:48;11.40;99.90
5956;DHT22;3004;48.080;11.600;2022-10-26T06:54:21;11.40;99.90
5956;DHT22;3004;48.080;11.600;2022-10-26T06:56:51;11.40;99.90
5956;DHT22;3004;48.080;11.600;2022-10-26T06:59:35;11.40;99.90
5956;DHT22;3004;48.080;11.600;2022-10-26T07:02:05;11.40;99.90
5956;DHT22;3004;48.080;11.600;2022-10-26T07:04:32;11.40;99.90
5956;DHT22;3004;48.080;11.600;2022-10-26T07:07:01;11.40;99.90
5956;DHT22;3004;48.080;11.600;2022-10-26T07:09:32;11.40;99.90
5956;DHT22;3004;48.080;11.600;2022-10-26T07:12:01;11.50;99.90
5956;DHT22;3004;48.080;11.600;2022-10-26T07:14:30;11.50;99.90
5956;DHT22;3004;48.080;11.600;2022-10-26T07:17:00;11.60;99.90
5956;DHT22;3004;48.080;11.600;2022-10-26T07:19:28;11.60;99.90
5956;DHT22;3004;48.080;11.600;2022-10-26T07:21:56;11.60;99.90
5956;DHT22;3004;48.080;11.600;2022-10-26T07:24:26;11.60;99.90
5956;DHT22;3004;48.080;11.600;2022-10-26T07:26:55;11.60;99.90
5956;DHT22;3004;48.080;11.600;2022-10-26T07:29:25;11.60;99.90
5956;DHT22;3004;48.080;11.600;2022-10-26T07:31:52;11.70;99.90
5956;DHT22;3004;48.080;11.600;2022-10-26T07:34:19;11.70;99.90
5956;DHT22;3004;48.080;11.600;2022-10-26T07:36:48;11.70;99.90
5956;DHT22;3004;48.080;11.600;2022-10-26T07:39:18;11.70;99.90
5956;DHT22;3004;48.080;11.600;2022-10-26T07:41:45;11.70;99.90
5956;DHT22;3004;48.080;11.600;2022-10-26T07:44:12;11.80;99.90
5956;DHT22;3004;48.080;11.600;2022-10-26T07:46:39;11.80;99.90
5956;DHT22;3004;48.080;11.600;2022-10-26T07:49:10;11.90;99.90
5956;DHT22;3004;48.080;11.600;2022-10-26T07:51:37;11.80;99.90
5956;DHT22;3004;48.080;11.600;2022-10-26T07:55:13;11.90;99.90
5956;DHT22;3004;48.080;11.600;2022-10-26T07:57:12;11.90;99.90
5956;DHT22;3004;48.080;11.600;2022-10-26T07:59:52;12.00;99.90
5956;DHT22;3004;48.080;11.600;2022-10-26T08:02:31;12.00;99.90
5956;DHT22;3004;48.080;11.600;2022-10-26T08:04:58;12.10;99.90
5956;DHT22;3004;48.080;11.600;2022-10-26T08:07:31;12.00;99.90
5956;DHT22;3004;48.080;11.600;2022-10-26T08:09:59;12.00;99.90
5956;DHT22;3004;48.080;11.600;2022-10-26T08:12:29;12.00;99.90
5956;DHT22;3004;48.080;11.600;2022-10-26T08:14:56;12.00;99.90
5956;DHT22;3004;48.080;11.600;2022-10-26T08:17:23;12.10;99.90
5956;DHT22;3004;48.080;11.600;2022-10-26T08:19:53;12.10;99.90
5956;DHT22;3004;48.080;11.600;2022-10-26T08:22:27;12.10;99.90
5956;DHT22;3004;48.080;11.600;2022-10-26T08:25:22;12.30;99.90
5956;DHT22;3004;48.080;11.600;2022-10-26T08:28:49;12.50;99.90
5956;DHT22;3004;48.080;11.600;2022-10-26T08:31:18;12.60;99.90
5956;DHT22;3004;48.080;11.600;2022-10-26T08:33:49;12.70;99.90
5956;DHT22;3004;48.080;11.600;2022-10-26T08:37:15;12.80;99.90
5956;DHT22;3004;48.080;11.600;2022-10-26T08:39:42;13.00;99.90
5956;DHT22;3004;48.080;11.600;2022-10-26T08:42:21;13.20;99.90
5956;DHT22;3004;48.080;11.600;2022-10-26T08:45:01;13.30;99.90
5956;DHT22;3004;48.080;11.600;2022-10-26T08:48:03;13.40;99.90
5956;DHT22;3004;48.080;11.600;2022-10-26T08:50:36;13.50;99.90
5956;DHT22;3004;48.080;11.600;2022-10-26T08:53:25;13.50;99.90
5956;DHT22;3004;48.080;11.600;2022-10-26T08:56:14;13.50;99.90
5956;DHT22;3004;48.080;11.600;2022-10-26T08:59:13;13.60;99.90
5956;DHT22;3004;48.080;11.600;2022-10-26T09:01:59;13.70;99.90
5956;DHT22;3004;48.080;11.600;2022-10-26T09:04:32;13.80;99.90
5956;DHT22;3004;48.080;11.600;2022-10-26T09:07:13;13.90;99.90
5956;DHT22;3004;48.080;11.600;2022-10-26T09:09:58;14.20;99.90
5956;DHT22;3004;48.080;11.600;2022-10-26T09:12:35;14.30;99.90
5956;DHT22;3004;48.080;11.600;2022-10-26T09:15:13;14.40;99.90
5956;DHT22;3004;48.080;11.600;2022-10-26T09:17:53;14.60;99.90
5956;DHT22;3004;48.080;11.600;2022-10-26T09:20:49;14.80;99.90
5956;DHT22;3004;48.080;11.600;2022-10-26T09:23:32;15.00;99.90
5956;DHT22;3004;48.080;11.600;2022-10-26T09:26:01;15.80;99.90
5956;DHT22;3004;48.080;11.600;2022-10-26T09:28:33;16.20;99.90
5956;DHT22;3004;48.080;11.600;2022-10-26T09:31:05;16.90;99.90
5956;DHT22;3004;48.080;11.600;2022-10-26T09:33:36;16.50;99.90
5956;DHT22;3004;48.080;11.600;2022-10-26T09:36:09;16.40;99.90
5956;DHT22;3004;48.080;11.600;2022-10-26T09:38:41;16.80;99.90
5956;DHT22;3004;48.080;11.600;2022-10-26T09:41:25;17.00;99.90
5956;DHT22;3004;48.080;11.600;2022-10-26T09:44:02;17.10;99.90
5956;DHT22;3004;48.080;11.600;2022-10-26T09:46:43;17.10;99.90
5956;DHT22;3004;48.080;11.600;2022-10-26T09:49:15;17.10;99.90
5956;DHT22;3004;48.080;11.600;2022-10-26T09:51:45;17.20;99.90
5956;DHT22;3004;48.080;11.600;2022-10-26T09:54:15;17.40;99.90
5956;DHT22;3004;48.080;11.600;2022-10-26T09:56:49;17.60;99.90
5956;DHT22;3004;48.080;11.600;2022-10-26T09:59:21;17.80;99.90
5956;DHT22;3004;48.080;11.600;2022-10-26T10:01:50;17.70;99.90
5956;DHT22;3004;48.080;11.600;2022-10-26T10:04:21;17.70;99.90
5956;DHT22;3004;48.080;11.600;2022-10-26T10:06:51;17.80;99.90
5956;DHT22;3004;48.080;11.600;2022-10-26T10:09:22;17.90;99.90
5956;DHT22;3004;48.080;11.600;2022-10-26T10:11:52;17.80;99.90
5956;DHT22;3004;48.080;11.600;2022-10-26T10:14:39;17.70;99.90
5956;DHT22;3004;48.080;11.600;2022-10-26T10:17:23;17.60;99.90
5956;DHT22;3004;48.080;11.600;2022-10-26T10:19:56;17.50;99.90
5956;DHT22;3004;48.080;11.600;2022-10-26T10:22:52;17.40;99.90
5956;DHT22;3004;48.080;11.600;2022-10-26T10:25:30;17.30;99.90
5956;DHT22;3004;48.080;11.600;2022-10-26T10:27:57;17.30;99.90
5956;DHT22;3004;48.080;11.600;2022-10-26T10:30:29;17.30;99.90
5956;DHT22;3004;48.080;11.600;2022-10-26T10:33:10;17.50;99.90
5956;DHT22;3004;48.080;11.600;2022-10-26T10:35:39;17.60;99.90
5956;DHT22;3004;48.080;11.600;2022-10-26T10:38:19;17.70;99.90
5956;DHT22;3004;48.080;11.600;2022-10-26T10:41:24;17.70;99.90
5956;DHT22;3004;48.080;11.600;2022-10-26T10:43:54;17.70;99.90
5956;DHT22;3004;48.080;11.600;2022-10-26T10:46:26;17.70;99.90
5956;DHT22;3004;48.080;11.600;2022-10-26T10:49:24;17.80;99.90
5956;DHT22;3004;48.080;11.600;2022-10-26T10:51:54;17.90;99.90
5956;DHT22;3004;48.080;11.600;2022-10-26T10:54:28;17.80;99.90
5956;DHT22;3004;48.080;11.600;2022-10-26T10:57:03;17.90;99.90
5956;DHT22;3004;48.080;11.600;2022-10-26T10:59:46;17.90;99.90
5956;DHT22;3004;48.080;11.600;2022-10-26T11:02:44;17.90;99.90
5956;DHT22;3004;48.080;11.600;2022-10-26T11:05:29;17.90;99.90
5956;DHT22;3004;48.080;11.600;2022-10-26T11:08:03;17.90;99.90
5956;DHT22;3004;48.080;11.600;2022-10-26T11:10:40;18.00;99.90
5956;DHT22;3004;48.080;11.600;2022-10-26T11:13:17;18.00;99.90
5956;DHT22;3004;48.080;11.600;2022-10-26T11:15:53;18.10;99.90
5956;DHT22;3004;48.080;11.600;2022-10-26T11:18:29;18.10;99.90
5956;DHT22;3004;48.080;11.600;2022-10-26T11:21:05;18.20;99.90
5956;DHT22;3004;48.080;11.600;2022-10-26T11:23:45;18.20;99.90
5956;DHT22;3004;48.080;11.600;2022-10-26T11:26:21;18.20;99.90
5956;DHT22;3004;48.080;11.600;2022-10-26T11:28:55;18.30;99.90
5956;DHT22;3004;48.080;11.600;2022-10-26T11:31:27;18.30;99.90
5956;DHT22;3004;48.080;11.600;2022-10-26T11:34:09;18.30;99.90
5956;DHT22;3004;48.080;11.600;2022-10-26T11:36:43;18.30;99.90
5956;DHT22;3004;48.080;11.600;2022-10-26T11:39:19;18.20;99.90
5956;DHT22;3004;48.080;11.600;2022-10-26T11:42:05;18.10;99.90
5956;DHT22;3004;48.080;11.600;2022-10-26T11:44:38;18.20;99.90
5956;DHT22;3004;48.080;11.600;2022-10-26T11:47:12;18.10;99.90
5956;DHT22;3004;48.080;11.600;2022-10-26T11:49:43;18.10;99.90
5956;DHT22;3004;48.080;11.600;2022-10-26T11:52:24;18.10;99.90
5956;DHT22;3004;48.080;11.600;2022-10-26T11:54:58;18.10;99.90
5956;DHT22;3004;48.080;11.600;2022-10-26T11:57:29;18.00;99.90
5956;DHT22;3004;48.080;11.600;2022-10-26T12:00:14;18.10;99.90
5956;DHT22;3004;48.080;11.600;2022-10-26T12:02:47;18.10;99.90
5956;DHT22;3004;48.080;11.600;2022-10-26T12:05:21;18.10;99.90
5956;DHT22;3004;48.080;11.600;2022-10-26T12:07:52;18.00;99.90
5956;DHT22;3004;48.080;11.600;2022-10-26T12:10:25;17.90;99.90
5956;DHT22;3004;48.080;11.600;2022-10-26T12:12:59;17.90;99.90
5956;DHT22;3004;48.080;11.600;2022-10-26T12:15:33;17.80;99.90
5956;DHT22;3004;48.080;11.600;2022-10-26T12:18:11;17.80;99.90
5956;DHT22;3004;48.080;11.600;2022-10-26T12:20:56;17.70;99.90
5956;DHT22;3004;48.080;11.600;2022-10-26T12:23:34;17.60;99.90
5956;DHT22;3004;48.080;11.600;2022-10-26T12:26:37;17.60;99.90
5956;DHT22;3004;48.080;11.600;2022-10-26T12:29:29;17.70;99.90
5956;DHT22;3004;48.080;11.600;2022-10-26T12:31:57;17.60;99.90
5956;DHT22;3004;48.080;11.600;2022-10-26T12:37:36;17.70;99.90
5956;DHT22;3004;48.080;11.600;2022-10-26T12:40:38;17.80;99.90
5956;DHT22;3004;48.080;11.600;2022-10-26T12:46:39;18.10;99.90
5956;DHT22;3004;48.080;11.600;2022-10-26T12:52:34;18.20;99.90
5956;DHT22;3004;48.080;11.600;2022-10-26T12:58:57;18.40;99.90
5956;DHT22;3004;48.080;11.600;2022-10-26T13:01:54;18.50;99.90
5956;DHT22;3004;48.080;11.600;2022-10-26T13:07:34;18.60;99.90
5956;DHT22;3004;48.080;11.600;2022-10-26T13:10:15;18.70;99.90
5956;DHT22;3004;48.080;11.600;2022-10-26T13:12:47;18.70;99.90
5956;DHT22;3004;48.080;11.600;2022-10-26T13:15:25;18.80;99.90
5956;DHT22;3004;48.080;11.600;2022-10-26T13:18:01;18.70;99.90
5956;DHT22;3004;48.080;11.600;2022-10-26T13:20:35;18.70;99.90
5956;DHT22;3004;48.080;11.600;2022-10-26T13:23:03;18.60;99.90
5956;DHT22;3004;48.080;11.600;2022-10-26T13:25:40;18.50;99.90
5956;DHT22;3004;48.080;11.600;2022-10-26T13:28:41;18.50;99.90
5956;DHT22;3004;48.080;11.600;2022-10-26T13:31:51;18.50;99.90
5956;DHT22;3004;48.080;11.600;2022-10-26T13:34:15;18.40;99.90
5956;DHT22;3004;48.080;11.600;2022-10-26T13:37:04;18.50;99.90
5956;DHT22;3004;48.080;11.600;2022-10-26T13:39:37;18.40;99.90
5956;DHT22;3004;48.080;11.600;2022-10-26T13:42:20;18.30;99.90
5956;DHT22;3004;48.080;11.600;2022-10-26T13:45:00;18.30;99.90
5956;DHT22;3004;48.080;11.600;2022-10-26T13:47:43;18.30;99.90
5956;DHT22;3004;48.080;11.600;2022-10-26T13:50:35;18.40;99.90
5956;DHT22;3004;48.080;11.600;2022-10-26T13:53:13;18.50;99.90
5956;DHT22;3004;48.080;11.600;2022-10-26T13:55:51;18.50;99.90
5956;DHT22;3004;48.080;11.600;2022-10-26T13:58:28;18.60;99.90
5956;DHT22;3004;48.080;11.600;2022-10-26T14:01:15;18.50;99.90
5956;DHT22;3004;48.080;11.600;2022-10-26T14:03:49;18.50;99.90
5956;DHT22;3004;48.080;11.600;2022-10-26T14:06:23;18.40;99.90
5956;DHT22;3004;48.080;11.600;2022-10-26T14:08:54;18.50;99.90
5956;DHT22;3004;48.080;11.600;2022-10-26T14:11:27;18.50;99.90
5956;DHT22;3004;48.080;11.600;2022-10-26T14:13:58;18.50;99.90
5956;DHT22;3004;48.080;11.600;2022-10-26T14:16:29;18.50;99.90
5956;DHT22;3004;48.080;11.600;2022-10-26T14:18:59;18.50;99.90
5956;DHT22;3004;48.080;11.600;2022-10-26T14:21:29;18.40;99.90
5956;DHT22;3004;48.080;11.600;2022-10-26T14:24:01;18.40;99.90
5956;DHT22;3004;48.080;11.600;2022-10-26T14:26:40;18.40;99.90
5956;DHT22;3004;48.080;11.600;2022-10-26T14:29:15;18.20;99.90
5956;DHT22;3004;48.080;11.600;2022-10-26T14:31:47;18.20;99.90
5956;DHT22;3004;48.080;11.600;2022-10-26T14:34:15;18.20;99.90
5956;DHT22;3004;48.080;11.600;2022-10-26T14:36:47;18.10;99.90
5956;DHT22;3004;48.080;11.600;2022-10-26T14:39:19;18.00;99.90
5956;DHT22;3004;48.080;11.600;2022-10-26T14:42:00;17.90;99.90
5956;DHT22;3004;48.080;11.600;2022-10-26T14:44:35;17.80;99.90
5956;DHT22;3004;48.080;11.600;2022-10-26T14:47:24;17.70;99.90
5956;DHT22;3004;48.080;11.600;2022-10-26T14:50:19;17.70;99.90
5956;DHT22;3004;48.080;11.600;2022-10-26T14:53:40;17.60;99.90
5956;DHT22;3004;48.080;11.600;2022-10-26T14:56:03;17.60;99.90
5956;DHT22;3004;48.080;11.600;2022-10-26T14:58:38;17.50;99.90
5956;DHT22;3004;48.080;11.600;2022-10-26T15:04:31;17.40;99.90
5956;DHT22;3004;48.080;11.600;2022-10-26T15:07:37;17.30;99.90
5956;DHT22;3004;48.080;11.600;2022-10-26T15:10:50;17.20;99.90
5956;DHT22;3004;48.080;11.600;2022-10-26T15:30:13;16.80;99.90
5956;DHT22;3004;48.080;11.600;2022-10-26T15:32:44;16.80;99.90
5956;DHT22;3004;48.080;11.600;2022-10-26T15:35:21;16.70;99.90
5956;DHT22;3004;48.080;11.600;2022-10-26T15:37:50;16.70;99.90
5956;DHT22;3004;48.080;11.600;2022-10-26T15:40:19;16.60;99.90
5956;DHT22;3004;48.080;11.600;2022-10-26T15:42:50;16.60;99.90
5956;DHT22;3004;48.080;11.600;2022-10-26T15:45:19;16.50;99.90
5956;DHT22;3004;48.080;11.600;2022-10-26T15:47:47;16.50;99.90
5956;DHT22;3004;48.080;11.600;2022-10-26T15:50:20;16.40;99.90
5956;DHT22;3004;48.080;11.600;2022-10-26T15:52:47;16.30;99.90
5956;DHT22;3004;48.080;11.600;2022-10-26T15:55:15;16.20;99.90
5956;DHT22;3004;48.080;11.600;2022-10-26T15:57:42;16.20;99.90
5956;DHT22;3004;48.080;11.600;2022-10-26T16:00:24;16.20;99.90
5956;DHT22;3004;48.080;11.600;2022-10-26T16:02:58;16.10;99.90
5956;DHT22;3004;48.080;11.600;2022-10-26T16:05:25;16.10;99.90
5956;DHT22;3004;48.080;11.600;2022-10-26T16:07:52;16.00;99.90
5956;DHT22;3004;48.080;11.600;2022-10-26T16:10:24;16.00;99.90
5956;DHT22;3004;48.080;11.600;2022-10-26T16:12:51;15.90;99.90
5956;DHT22;3004;48.080;11.600;2022-10-26T16:15:21;15.90;99.90
5956;DHT22;3004;48.080;11.600;2022-10-26T16:17:49;15.80;99.90
5956;DHT22;3004;48.080;11.600;2022-10-26T16:20:22;15.80;99.90
5956;DHT22;3004;48.080;11.600;2022-10-26T16:22:50;15.70;99.90
5956;DHT22;3004;48.080;11.600;2022-10-26T16:25:19;15.70;99.90
5956;DHT22;3004;48.080;11.600;2022-10-26T16:27:46;15.60;99.90
5956;DHT22;3004;48.080;11.600;2022-10-26T16:30:14;15.60;99.90
5956;DHT22;3004;48.080;11.600;2022-10-26T16:32:44;15.50;99.90
5956;DHT22;3004;48.080;11.600;2022-10-26T16:35:12;15.40;99.90
5956;DHT22;3004;48.080;11.600;2022-10-26T16:37:41;15.40;99.90
5956;DHT22;3004;48.080;11.600;2022-10-26T16:40:17;15.40;99.90
5956;DHT22;3004;48.080;11.600;2022-10-26T16:42:44;15.40;99.90
5956;DHT22;3004;48.080;11.600;2022-10-26T16:45:12;15.40;99.90
5956;DHT22;3004;48.080;11.600;2022-10-26T16:47:40;15.30;99.90
5956;DHT22;3004;48.080;11.600;2022-10-26T16:50:11;15.30;99.90
5956;DHT22;3004;48.080;11.600;2022-10-26T16:52:39;15.20;99.90
5956;DHT22;3004;48.080;11.600;2022-10-26T16:55:09;15.20;99.90
5956;DHT22;3004;48.080;11.600;2022-10-26T16:57:36;15.20;99.90
5956;DHT22;3004;48.080;11.600;2022-10-26T17:00:06;15.20;99.90
5956;DHT22;3004;48.080;11.600;2022-10-26T17:02:33;15.10;99.90
5956;DHT22;3004;48.080;11.600;2022-10-26T17:05:00;15.10;99.90
5956;DHT22;3004;48.080;11.600;2022-10-26T17:07:29;15.10;99.90
5956;DHT22;3004;48.080;11.600;2022-10-26T17:09:56;15.10;99.90
5956;DHT22;3004;48.080;11.600;2022-10-26T17:12:23;15.10;99.90
5956;DHT22;3004;48.080;11.600;2022-10-26T17:14:50;15.10;99.90
5956;DHT22;3004;48.080;11.600;2022-10-26T17:17:17;15.10;99.90
5956;DHT22;3004;48.080;11.600;2022-10-26T17:19:47;15.10;99.90
5956;DHT22;3004;48.080;11.600;2022-10-26T17:22:14;15.10;99.90
5956;DHT22;3004;48.080;11.600;2022-10-26T17:24:43;15.10;99.90
5956;DHT22;3004;48.080;11.600;2022-10-26T17:27:10;15.00;99.90
5956;DHT22;3004;48.080;11.600;2022-10-26T17:29:37;15.00;99.90
5956;DHT22;3004;48.080;11.600;2022-10-26T17:32:05;15.00;99.90
5956;DHT22;3004;48.080;11.600;2022-10-26T17:34:44;15.00;99.90
5956;DHT22;3004;48.080;11.600;2022-10-26T17:37:11;14.90;99.90
5956;DHT22;3004;48.080;11.600;2022-10-26T17:39:38;14.90;99.90
5956;DHT22;3004;48.080;11.600;2022-10-26T17:42:09;14.80;99.90
5956;DHT22;3004;48.080;11.600;2022-10-26T17:44:36;14.70;99.90
5956;DHT22;3004;48.080;11.600;2022-10-26T17:47:04;14.60;99.90
5956;DHT22;3004;48.080;11.600;2022-10-26T17:49:30;14.60;99.90
5956;DHT22;3004;48.080;11.600;2022-10-26T17:51:57;14.50;99.90
5956;DHT22;3004;48.080;11.600;2022-10-26T17:54:24;14.40;99.90
5956;DHT22;3004;48.080;11.600;2022-10-26T17:56:51;14.30;99.90
5956;DHT22;3004;48.080;11.600;2022-10-26T17:59:20;14.30;99.90
5956;DHT22;3004;48.080;11.600;2022-10-26T18:01:47;14.20;99.90
5956;DHT22;3004;48.080;11.600;2022-10-26T18:04:14;14.10;99.90
5956;DHT22;3004;48.080;11.600;2022-10-26T18:06:41;14.00;99.90
5956;DHT22;3004;48.080;11.600;2022-10-26T18:09:08;13.90;99.90
5956;DHT22;3004;48.080;11.600;2022-10-26T18:11:35;13.80;99.90
5956;DHT22;3004;48.080;11.600;2022-10-26T18:14:02;13.70;99.90
5956;DHT22;3004;48.080;11.600;2022-10-26T18:16:31;13.70;99.90
5956;DHT22;3004;48.080;11.600;2022-10-26T18:19:02;13.50;99.90
5956;DHT22;3004;48.080;11.600;2022-10-26T18:21:31;13.40;99.90
5956;DHT22;3004;48.080;11.600;2022-10-26T18:23:58;13.40;99.90
5956;DHT22;3004;48.080;11.600;2022-10-26T18:26:27;13.30;99.90
5956;DHT22;3004;48.080;11.600;2022-10-26T18:28:54;13.30;99.90
5956;DHT22;3004;48.080;11.600;2022-10-26T18:31:24;13.20;99.90
5956;DHT22;3004;48.080;11.600;2022-10-26T18:33:57;13.10;99.90
5956;DHT22;3004;48.080;11.600;2022-10-26T18:36:25;13.10;99.90
5956;DHT22;3004;48.080;11.600;2022-10-26T18:38:53;13.00;99.90
5956;DHT22;3004;48.080;11.600;2022-10-26T18:41:21;12.90;99.90
5956;DHT22;3004;48.080;11.600;2022-10-26T18:43:51;12.90;99.90
5956;DHT22;3004;48.080;11.600;2022-10-26T18:46:21;12.80;99.90
5956;DHT22;3004;48.080;11.600;2022-10-26T18:48:48;12.80;99.90
5956;DHT22;3004;48.080;11.600;2022-10-26T18:51:19;12.80;99.90
5956;DHT22;3004;48.080;11.600;2022-10-26T18:53:47;12.70;99.90
5956;DHT22;3004;48.080;11.600;2022-10-26T18:56:16;12.60;99.90
5956;DHT22;3004;48.080;11.600;2022-10-26T18:58:45;12.60;99.90
5956;DHT22;3004;48.080;11.600;2022-10-26T19:01:14;12.50;99.90
5956;DHT22;3004;48.080;11.600;2022-10-26T19:03:42;12.50;99.90
5956;DHT22;3004;48.080;11.600;2022-10-26T19:06:10;12.40;99.90
5956;DHT22;3004;48.080;11.600;2022-10-26T19:08:40;12.40;99.90
5956;DHT22;3004;48.080;11.600;2022-10-26T19:11:10;12.30;99.90
5956;DHT22;3004;48.080;11.600;2022-10-26T19:13:38;12.20;99.90
5956;DHT22;3004;48.080;11.600;2022-10-26T19:16:07;12.20;99.90
5956;DHT22;3004;48.080;11.600;2022-10-26T19:18:34;12.10;99.90
5956;DHT22;3004;48.080;11.600;2022-10-26T19:21:03;12.10;99.90
5956;DHT22;3004;48.080;11.600;2022-10-26T19:23:35;12.10;99.90
5956;DHT22;3004;48.080;11.600;2022-10-26T19:26:04;12.00;99.90
5956;DHT22;3004;48.080;11.600;2022-10-26T19:28:32;12.00;99.90
5956;DHT22;3004;48.080;11.600;2022-10-26T19:31:00;11.90;99.90
5956;DHT22;3004;48.080;11.600;2022-10-26T19:33:29;11.90;99.90
5956;DHT22;3004;48.080;11.600;2022-10-26T19:35:59;11.80;99.90